地図

経路データ

SID SEASON NUMBER BASIN SUBBASIN NAME ISO_TIME NATURE LAT LON WMO_WIND WMO_PRES WMO_AGENCY TRACK_TYPE DIST2LAND LANDFALL IFLAG USA_AGENCY USA_ATCF_ID USA_LAT USA_LON USA_RECORD USA_STATUS USA_WIND USA_PRES USA_SSHS USA_R34_NE USA_R34_SE USA_R34_SW USA_R34_NW USA_R50_NE USA_R50_SE USA_R50_SW USA_R50_NW USA_R64_NE USA_R64_SE USA_R64_SW USA_R64_NW USA_POCI USA_ROCI USA_RMW USA_EYE TOKYO_LAT TOKYO_LON TOKYO_GRADE TOKYO_WIND TOKYO_PRES TOKYO_R50_DIR TOKYO_R50_LONG TOKYO_R50_SHORT TOKYO_R30_DIR TOKYO_R30_LONG TOKYO_R30_SHORT TOKYO_LAND CMA_LAT CMA_LON CMA_CAT CMA_WIND CMA_PRES HKO_LAT HKO_LON HKO_CAT HKO_WIND HKO_PRES NEWDELHI_LAT NEWDELHI_LON NEWDELHI_GRADE NEWDELHI_WIND NEWDELHI_PRES NEWDELHI_CI NEWDELHI_DP NEWDELHI_POCI REUNION_LAT REUNION_LON REUNION_TYPE REUNION_WIND REUNION_PRES REUNION_TNUM REUNION_CI REUNION_RMW REUNION_R34_NE REUNION_R34_SE REUNION_R34_SW REUNION_R34_NW REUNION_R50_NE REUNION_R50_SE REUNION_R50_SW REUNION_R50_NW REUNION_R64_NE REUNION_R64_SE REUNION_R64_SW REUNION_R64_NW BOM_LAT BOM_LON BOM_TYPE BOM_WIND BOM_PRES BOM_TNUM BOM_CI BOM_RMW BOM_R34_NE BOM_R34_SE BOM_R34_SW BOM_R34_NW BOM_R50_NE BOM_R50_SE BOM_R50_SW BOM_R50_NW BOM_R64_NE BOM_R64_SE BOM_R64_SW BOM_R64_NW BOM_ROCI BOM_POCI BOM_EYE BOM_POS_METHOD BOM_PRES_METHOD NADI_LAT NADI_LON NADI_CAT NADI_WIND NADI_PRES WELLINGTON_LAT WELLINGTON_LON WELLINGTON_WIND WELLINGTON_PRES DS824_LAT DS824_LON DS824_STAGE DS824_WIND DS824_PRES TD9636_LAT TD9636_LON TD9636_STAGE TD9636_WIND TD9636_PRES TD9635_LAT TD9635_LON TD9635_WIND TD9635_PRES TD9635_ROCI NEUMANN_LAT NEUMANN_LON NEUMANN_CLASS NEUMANN_WIND NEUMANN_PRES MLC_LAT MLC_LON MLC_CLASS MLC_WIND MLC_PRES USA_GUST BOM_GUST BOM_GUST_PER REUNION_GUST REUNION_GUST_PER USA_SEAHGT USA_SEARAD_NE USA_SEARAD_SE USA_SEARAD_SW USA_SEARAD_NW STORM_SPEED STORM_DIR
1978045S13179 1978 14 SP MM CHARLES 1978-02-13 12:00:00 TS -12.8000 179.100 main 388 384 O________O__O_ jtwc_sh SH201978 -12.8000 179.100 25 -1 -12.8000 179.100 TC 25 -12.8000 179.100 TC 25 4 90
1978045S13179 1978 14 SP MM CHARLES 1978-02-13 15:00:00 TS -12.8000 179.283 main 384 381 P________P__P_ SH201978 -12.8000 179.283 25 -1 -12.8000 179.283 TC 25 -12.8000 179.283 TC 25 4 90
1978045S13179 1978 14 SP MM CHARLES 1978-02-13 18:00:00 TS -12.8000 179.500 main 381 380 O________O__O_ jtwc_sh SH201978 -12.8000 179.500 25 -1 -12.8000 179.500 TC 25 -12.8000 179.500 TC 25 5 90
1978045S13179 1978 14 SP MM CHARLES 1978-02-13 21:00:00 TS -12.8000 179.778 main 380 380 P________P__P_ SH201978 -12.8000 179.778 25 -1 -12.8000 179.778 TC 25 -12.8000 179.778 TC 25 6 90
1978045S13179 1978 14 SP MM CHARLES 1978-02-14 00:00:00 TS -12.8000 180.100 main 381 381 O________OO_O_ jtwc_sh SH201978 -12.8000 -179.900 25 -1 -12.8000 180.100 TC 25 -12.8000 -179.900 1 25 -12.8000 -179.900 TC 25 6 90
1978045S13179 1978 14 SP MM CHARLES 1978-02-14 03:00:00 TS -12.7970 180.443 main 384 384 P________PP_P_ SH201978 -12.7925 -179.557 27 -1 -12.7925 -179.557 TC 27 -12.8239 -179.555 1 -12.7925 -179.557 TC 27 7 91
1978045S13179 1978 14 SP MM CHARLES 1978-02-14 06:00:00 TS -12.8096 180.798 main 392 391 O________OP_O_ jtwc_sh SH201978 -12.8000 -179.200 30 -1 -12.8000 180.800 TC 30 -12.8481 -179.208 1 -12.8000 -179.200 TC 30 7 95
1978045S13179 1978 14 SP MM CHARLES 1978-02-14 09:00:00 TS -12.8557 181.143 main 391 391 P________PP_P_ SH201978 -12.8499 -178.858 30 -1 -12.8499 -178.858 TC 30 -12.8732 -178.857 1 -12.8499 -178.858 TC 30 7 97
1978045S13179 1978 14 SP MM CHARLES 1978-02-14 12:00:00 TS -12.8941 181.471 30 997 wellington main 407 407 O_______OOO_O_ jtwc_sh SH201978 -12.9000 -178.500 30 -1 -12.8000 -179.000 30 997 -12.9000 181.500 TC 30 -12.9000 -178.500 1 -12.9000 -178.500 TC 30 7 94
1978045S13179 1978 14 SP MM CHARLES 1978-02-14 15:00:00 TS -12.8984 181.851 main 427 427 P_______PPP_P_ SH201978 -12.8999 -178.115 30 -1 -12.8290 -178.383 30 997 -12.8999 -178.115 TC 30 -12.9285 -178.133 1 -12.8999 -178.115 TC 30 8 91
1978045S13179 1978 14 SP MM CHARLES 1978-02-14 18:00:00 TS -12.9050 182.282 main 450 450 O_______POP_O_ jtwc_sh SH201978 -12.9000 -177.700 30 -1 -12.8559 -177.763 30 997 -12.9000 182.300 TC 30 -12.9566 -177.740 1 -12.9000 -177.700 TC 30 9 93
1978045S13179 1978 14 SP MM CHARLES 1978-02-14 21:00:00 TS -12.9421 182.740 main 476 436 P_______PPP_P_ SH201978 -12.9498 -177.288 30 -1 -12.8798 -177.136 30 997 -12.9498 -177.288 TC 30 -12.9815 -177.302 1 -12.9498 -177.288 TC 30 10 94
1978045S13179 1978 14 SP MM CHARLES 1978-02-15 00:00:00 TS -12.9800 183.260 30 997 wellington main 426 372 O_______OOO_O_ jtwc_sh SH201978 -13.0000 -176.800 30 -1 -12.9000 -176.500 30 997 -13.0000 183.200 TC 30 -13.0000 -176.800 1 30 -13.0000 -176.800 TC 30 11 92
1978045S13179 1978 14 SP MM CHARLES 1978-02-15 03:00:00 TS -12.9886 183.883 main 361 297 P_______PPP_P_ SH201978 -13.0075 -176.180 32 -1 -12.9167 -175.855 30 997 -13.0075 -176.180 TC 32 -13.0037 -176.190 1 -13.0075 -176.180 TC 32 13 90
1978045S13179 1978 14 SP MM CHARLES 1978-02-15 06:00:00 TS -12.9872 184.553 main 287 223 O_______POP_O_ jtwc_sh SH201978 -13.0000 -175.500 35 0 -12.9349 -175.212 30 997 -13.0000 184.500 TC 35 -13.0009 -175.522 1 -13.0000 -175.500 TC 35 13 90
1978045S13179 1978 14 SP MM CHARLES 1978-02-15 09:00:00 TS -12.9916 185.222 main 223 161 P_______PPP_P_ SH201978 -13.0000 -174.820 35 0 -12.9606 -174.589 30 997 -13.0000 -174.820 TC 35 -12.9974 -174.843 1 -13.0000 -174.820 TC 35 13 91
1978045S13179 1978 14 SP MM CHARLES 1978-02-15 12:00:00 TS -13.0000 185.840 30 997 wellington main 161 112 O_______OOO_O_ jtwc_sh SH201978 -13.0000 -174.200 35 0 -13.0000 -174.000 30 997 -13.0000 185.800 TC 35 -13.0000 -174.200 1 -13.0000 -174.200 TC 35 11 91
1978045S13179 1978 14 SP MM CHARLES 1978-02-15 15:00:00 TS -13.0031 186.317 main 112 77 P_______PPP_P_ SH201978 -12.9922 -173.735 37 0 -13.0431 -173.504 30 997 -12.9922 -173.735 TC 37 -12.9960 -173.705 1 -12.9922 -173.735 TC 37 9 91
1978045S13179 1978 14 SP MM CHARLES 1978-02-15 18:00:00 TS -13.0212 186.764 main 70 44 O_______POP_O_ jtwc_sh SH201978 -13.0000 -173.300 40 0 -13.1031 -173.037 30 997 -13.0000 186.700 TC 40 -13.0028 -173.244 1 -13.0000 -173.300 TC 40 9 94
1978045S13179 1978 14 SP MM CHARLES 1978-02-15 21:00:00 TS -13.0603 187.256 main 44 44 P_______PPP_P_ SH201978 -13.0272 -172.802 42 0 -13.1867 -172.551 30 997 -13.0272 -172.802 TC 42 -13.0333 -172.761 1 -13.0272 -172.802 TC 42 11 96
1978045S13179 1978 14 SP MM CHARLES 1978-02-16 00:00:00 TS -13.1400 187.840 30 997 wellington main 49 46 O_______OOO_O_ jtwc_sh SH201978 -13.1000 -172.200 45 0 -13.3000 -172.000 30 997 -13.1000 187.800 TC 45 -13.1000 -172.200 2 35 -13.1000 -172.200 TC 45 13 99
1978045S13179 1978 14 SP MM CHARLES 1978-02-16 03:00:00 TS -13.2741 188.577 main 97 97 P_______PPP_P_ SH201978 -13.2351 -171.438 47 0 -13.4546 -171.322 30 997 -13.2351 -171.438 TC 47 -13.2106 -171.478 2 -13.2351 -171.438 TC 47 15 101
1978045S13179 1978 14 SP MM CHARLES 1978-02-16 06:00:00 TS -13.4382 189.390 main 176 176 O_______POP_O_ jtwc_sh SH201978 -13.4000 -170.600 50 0 -13.6353 -170.575 30 997 -13.4000 189.400 TC 50 -13.3558 -170.675 2 -13.4000 -170.600 TC 50 16 102
1978045S13179 1978 14 SP MM CHARLES 1978-02-16 09:00:00 TS -13.5945 190.186 main 259 259 P_______PPP_P_ SH201978 -13.5421 -169.815 52 0 -13.8232 -169.791 30 997 -13.5421 -169.815 TC 52 -13.5229 -169.834 2 -13.5421 -169.815 TC 52 16 102
1978045S13179 1978 14 SP MM CHARLES 1978-02-16 12:00:00 TS -13.7600 191.000 30 997 wellington main 345 345 O_______OOO_O_ jtwc_sh SH201978 -13.7000 -169.000 55 0 -14.0000 -169.000 30 997 -13.7000 191.000 TC 55 -13.7000 -169.000 2 -13.7000 -169.000 TC 55 17 102
1978045S13179 1978 14 SP MM CHARLES 1978-02-16 15:00:00 TS -13.9451 191.893 main 443 443 P_______PPP_P_ SH201978 -13.9003 -168.070 57 0 -14.1401 -168.169 32 995 -13.9003 -168.070 TC 57 -13.8845 -168.155 2 -13.9003 -168.070 TC 57 17 102
1978045S13179 1978 14 SP MM CHARLES 1978-02-16 18:00:00 TS -14.1279 192.743 main 530 530 O_______POP_O_ jtwc_sh SH201978 -14.1000 -167.200 60 0 -14.2662 -167.350 35 993 -14.1000 192.800 TC 60 -14.0734 -167.336 2 -14.1000 -167.200 TC 60 16 103
1978045S13179 1978 14 SP MM CHARLES 1978-02-16 21:00:00 TS -14.2857 193.457 main 617 617 P_______PPP_P_ SH201978 -14.2648 -166.502 62 0 -14.3840 -166.606 37 991 -14.2648 -166.502 TC 62 -14.2504 -166.599 2 -14.2648 -166.502 TC 62 13 103
1978045S13179 1978 14 SP MM CHARLES 1978-02-17 00:00:00 TS -14.4200 194.000 40 990 wellington main 672 672 O_______OOO_O_ jtwc_sh SH201978 -14.4000 -166.000 65 1 -14.5000 -166.000 40 990 -14.4000 194.000 TC 65 -14.4000 -166.000 2 55 -14.4000 -166.000 TC 65 9 106
1978045S13179 1978 14 SP MM CHARLES 1978-02-17 03:00:00 TS -14.5348 194.335 main 705 705 P_______PPP_P_ SH201978 -14.5147 -165.697 67 1 -14.6233 -165.626 43 987 -14.5147 -165.697 TC 67 -14.5063 -165.606 2 57 -14.5147 -165.697 TC 67 6 111
1978045S13179 1978 14 SP MM CHARLES 1978-02-17 06:00:00 TS -14.6267 194.553 main 738 738 O_______POP_O_ jtwc_sh SH201978 -14.6000 -165.500 70 1 -14.7480 -165.387 47 985 -14.6000 194.500 TC 70 -14.5857 -165.349 2 60 -14.6000 -165.500 TC 70 5 111
1978045S13179 1978 14 SP MM CHARLES 1978-02-17 09:00:00 TS -14.6987 194.775 main 761 761 P_______PPP_P_ SH201978 -14.6575 -165.250 72 1 -14.8737 -165.204 51 982 -14.6575 -165.250 TC 72 -14.6474 -165.168 2 62 -14.6575 -165.250 TC 72 5 107
1978045S13179 1978 14 SP MM CHARLES 1978-02-17 12:00:00 TS -14.7600 195.000 55 980 wellington main 784 784 O_______OOO_O_ jtwc_sh SH201978 -14.7000 -165.000 75 1 -15.0000 -165.000 55 980 -14.7000 195.000 TC 75 -14.7000 -165.000 4 65 -14.7000 -165.000 TC 75 5 106
1978045S13179 1978 14 SP MM CHARLES 1978-02-17 15:00:00 TS -14.8313 195.270 main 816 816 P_______PPP_P_ SH201978 -14.7500 -164.750 75 1 -15.1536 -164.649 55 980 -14.7500 -164.750 TC 75 -14.7530 -164.750 4 67 -14.7500 -164.750 TC 75 5 105
1978045S13179 1978 14 SP MM CHARLES 1978-02-17 18:00:00 TS -14.9005 195.547 main 838 838 O_______POP_O_ jtwc_sh SH201978 -14.8000 -164.500 75 1 -15.3028 -164.266 55 980 -14.8000 195.500 TC 75 -14.7999 -164.500 4 70 -14.8000 -164.500 TC 75 6 103
1978045S13179 1978 14 SP MM CHARLES 1978-02-17 21:00:00 TS -14.9599 195.825 main 872 872 P_______PPP_P_ SH201978 -14.8425 -164.250 75 1 -15.4255 -163.874 55 980 -14.8425 -164.250 TC 75 -14.8468 -164.250 4 72 -14.8425 -164.250 TC 75 5 103
1978045S13179 1978 14 SP MM CHARLES 1978-02-18 00:00:00 TS -15.0200 196.100 55 980 wellington main 904 904 O_______OOO_O_ jtwc_sh SH201978 -14.9000 -164.000 75 1 -15.5000 -163.500 55 980 -14.9000 196.000 TC 75 -14.9000 -164.000 4 75 -14.9000 -164.000 TC 75 5 105
1978045S13179 1978 14 SP MM CHARLES 1978-02-18 03:00:00 TS -15.1001 196.368 main 937 937 P_______PPP_P_ SH201978 -15.0000 -163.750 72 1 -15.5124 -163.162 57 977 -15.0000 -163.750 TC 72 -14.9880 -163.750 4 -15.0000 -163.750 TC 72 5 106
1978045S13179 1978 14 SP MM CHARLES 1978-02-18 06:00:00 TS -15.1709 196.631 main 960 960 O_______POP_O_ jtwc_sh SH201978 -15.1000 -163.500 70 1 -15.4748 -162.847 60 975 -15.1000 196.500 TC 70 -15.0799 -163.500 4 -15.1000 -163.500 TC 70 5 103
1978045S13179 1978 14 SP MM CHARLES 1978-02-18 09:00:00 TS -15.2148 196.884 main 992 992 P_______PPP_P_ SH201978 -15.1724 -163.258 70 1 -15.3999 -162.559 62 972 -15.1724 -163.258 TC 70 -15.1568 -163.250 4 -15.1724 -163.258 TC 70 5 96
1978045S13179 1978 14 SP MM CHARLES 1978-02-18 12:00:00 TS -15.2200 197.140 65 970 wellington main 1013 1013 O_______OOO_O_ jtwc_sh SH201978 -15.2000 -163.000 70 1 -15.3000 -162.300 65 970 -15.2000 197.000 TC 70 -15.2000 -163.000 4 -15.2000 -163.000 TC 70 5 86
1978045S13179 1978 14 SP MM CHARLES 1978-02-18 15:00:00 TS -15.1739 197.443 main 1045 1045 P_______PPP_P_ SH201978 -15.1650 -162.692 70 1 -15.1884 -162.018 68 966 -15.1650 -162.692 TC 70 -15.1861 -162.689 4 -15.1650 -162.692 TC 70 6 78
1978045S13179 1978 14 SP MM CHARLES 1978-02-18 18:00:00 TS -15.0990 197.728 main 1076 1076 O_______POP_O_ jtwc_sh SH201978 -15.1000 -162.400 70 1 -15.0574 -161.772 72 962 -15.1000 197.600 TC 70 -15.1377 -162.387 4 -15.1000 -162.400 TC 70 5 74
1978045S13179 1978 14 SP MM CHARLES 1978-02-18 21:00:00 TS -15.0286 197.970 main 1107 1107 P_______PPP_P_ SH201978 -15.0500 -162.140 70 1 -14.9228 -161.590 76 958 -15.0500 -162.140 TC 70 -15.0704 -162.142 4 -15.0500 -162.140 TC 70 4 69
1978045S13179 1978 14 SP MM CHARLES 1978-02-19 00:00:00 TS -14.9600 198.100 80 955 wellington main 1117 1116 O_______OOO_O_ jtwc_sh SH201978 -15.0000 -162.000 70 1 -14.8000 -161.500 80 955 -15.0000 198.000 TC 70 -15.0000 -162.000 4 70 -15.0000 -162.000 TC 70 2 36
1978045S13179 1978 14 SP MM CHARLES 1978-02-19 03:00:00 TS -14.8964 198.066 main 1116 1094 P_______PPP_P_ SH201978 -14.9500 -162.048 67 1 -14.6983 -161.511 78 956 -14.9500 -162.048 TC 67 -14.9336 -162.017 4 -14.9500 -162.048 TC 65 2 307
1978045S13179 1978 14 SP MM CHARLES 1978-02-19 06:00:00 TS -14.8365 197.929 main 1094 1083 O_______POP_O_ jtwc_sh SH201978 -14.9000 -162.200 65 1 -14.6123 -161.615 77 957 -14.9000 197.800 TC 65 -14.8699 -162.138 4 -14.9000 -162.200 TC 60 3 293
1978045S13179 1978 14 SP MM CHARLES 1978-02-19 09:00:00 TS -14.7743 197.770 main 1083 1061 P_______PPP_P_ SH201978 -14.8350 -162.350 65 1 -14.5452 -161.786 76 958 -14.8350 -162.350 TC 65 -14.8213 -162.314 4 -14.8350 -162.350 TC 62 3 287
1978045S13179 1978 14 SP MM CHARLES 1978-02-19 12:00:00 TS -14.7400 197.600 75 960 wellington main 1061 1050 O_______OOO_O_ jtwc_sh SH201978 -14.8000 -162.500 65 1 -14.5000 -162.000 75 960 -14.8000 197.500 TC 65 -14.8000 -162.500 4 -14.8000 -162.500 TC 65 3 274
1978045S13179 1978 14 SP MM CHARLES 1978-02-19 15:00:00 TS -14.7545 197.464 main 1051 1030 P_______PPP_P_ SH201978 -14.8350 -162.600 65 1 -14.4462 -162.255 73 961 -14.8350 -162.600 TC 65 -14.8212 -162.625 4 -14.8350 -162.600 TC 65 3 258
1978045S13179 1978 14 SP MM CHARLES 1978-02-19 18:00:00 TS -14.7976 197.323 main 1030 1019 O_______POP_O_ jtwc_sh SH201978 -14.9000 -162.700 65 1 -14.4179 -162.538 72 962 -14.9000 197.300 TC 65 -14.8700 -162.750 4 -14.9000 -162.700 TC 65 3 254
1978045S13179 1978 14 SP MM CHARLES 1978-02-19 21:00:00 TS -14.8429 197.155 main 1019 999 P_______PPP_P_ SH201978 -14.9500 -162.850 65 1 -14.4306 -162.802 71 963 -14.9500 -162.850 TC 65 -14.9337 -162.875 4 -14.9500 -162.850 TC 65 3 252
1978045S13179 1978 14 SP MM CHARLES 1978-02-20 00:00:00 TS -14.9000 197.000 70 965 wellington main 999 988 O_______OOO_O_ jtwc_sh SH201978 -15.0000 -163.000 65 1 -14.5000 -163.000 70 965 -15.0000 197.000 TC 65 -15.0000 -163.000 4 65 -15.0000 -163.000 TC 65 3 243
1978045S13179 1978 14 SP MM CHARLES 1978-02-20 03:00:00 TS -14.9684 196.895 main 989 978 P_______PPP_P_ SH201978 -15.0500 -163.100 65 1 -14.6464 -163.092 66 968 -15.0500 -163.100 TC 65 -15.0459 -163.133 4 -15.0500 -163.100 TC 65 2 232
1978045S13179 1978 14 SP MM CHARLES 1978-02-20 06:00:00 TS -15.0480 196.805 main 978 969 O_______POP_O_ jtwc_sh SH201978 -15.1000 -163.200 65 1 -14.8473 -163.112 62 972 -15.1000 196.800 TC 65 -15.0925 -163.265 4 -15.1000 -163.200 TC 65 3 229
1978045S13179 1978 14 SP MM CHARLES 1978-02-20 09:00:00 TS -15.1335 196.697 main 969 960 P_______PPP_P_ SH201978 -15.1500 -163.350 65 1 -15.0746 -163.077 58 976 -15.1500 -163.350 TC 65 -15.1428 -163.389 4 -15.1500 -163.350 TC 65 3 229
1978045S13179 1978 14 SP MM CHARLES 1978-02-20 12:00:00 TS -15.2200 196.600 55 980 wellington main 960 951 O_______OOO_O_ jtwc_sh SH201978 -15.2000 -163.500 65 1 -15.3000 -163.000 55 980 -15.2000 196.500 TC 65 -15.2000 -163.500 4 -15.2000 -163.500 TC 65 2 225
1978045S13179 1978 14 SP MM CHARLES 1978-02-20 15:00:00 TS -15.2955 196.529 main 951 951 P_______PPP_P_ SH201978 -15.2425 -163.615 65 1 -15.4903 -162.911 51 982 -15.2425 -163.615 TC 65 -15.2597 -163.598 4 -15.2425 -163.615 TC 65 2 214
1978045S13179 1978 14 SP MM CHARLES 1978-02-20 18:00:00 TS -15.3800 196.486 main 953 953 O_______POP_O_ jtwc_sh SH201978 -15.3000 -163.700 65 1 -15.6726 -162.788 47 985 -15.3000 196.300 TC 65 -15.3275 -163.680 4 -15.3000 -163.700 TC 65 2 196
1978045S13179 1978 14 SP MM CHARLES 1978-02-20 21:00:00 TS -15.4855 196.467 main 955 955 P_______PPP_P_ SH201978 -15.3925 -163.758 65 1 -15.8435 -162.645 43 987 -15.3925 -163.758 TC 65 -15.4065 -163.748 4 -15.3925 -163.758 TC 62 2 183
1978045S13179 1978 14 SP MM CHARLES 1978-02-21 00:00:00 TS -15.6000 196.460 40 990 wellington main 957 949 O_______OOO_O_ jtwc_sh SH201978 -15.5000 -163.800 65 1 -16.0000 -162.500 40 990 -15.5000 196.200 TC 65 -15.5000 -163.800 4 65 -15.5000 -163.800 TC 60 2 183
1978045S13179 1978 14 SP MM CHARLES 1978-02-21 03:00:00 TS -15.7055 196.446 main 949 949 P_______PPP_P_ SH201978 -15.5925 -163.857 67 1 -16.1394 -162.355 40 990 -15.5925 -163.857 TC 67 -15.6106 -163.843 4 -15.5925 -163.857 TC 65 2 183
1978045S13179 1978 14 SP MM CHARLES 1978-02-21 06:00:00 TS -15.8200 196.443 main 951 951 O_______POP_O_ jtwc_sh SH201978 -15.7000 -163.900 70 1 -16.2651 -162.213 40 990 -15.7000 196.100 TC 70 -15.7350 -163.873 4 -15.7000 -163.900 TC 70 3 178
1978045S13179 1978 14 SP MM CHARLES 1978-02-21 09:00:00 TS -15.9555 196.464 main 967 967 P_______PPP_P_ SH201978 -15.8425 -163.900 70 1 -16.3832 -162.089 40 990 -15.8425 -163.900 TC 70 -15.8669 -163.890 4 -15.8425 -163.900 TC 70 3 172
1978045S13179 1978 14 SP MM CHARLES 1978-02-21 12:00:00 TS -16.1000 196.480 40 990 wellington main 969 969 O_______OOO_O_ jtwc_sh SH201978 -16.0000 -163.900 70 1 -16.5000 -162.000 40 990 -16.0000 196.100 TC 70 -16.0000 -163.900 4 -16.0000 -163.900 TC 70 3 182
1978045S13179 1978 14 SP MM CHARLES 1978-02-21 15:00:00 TS -16.2461 196.452 main 972 965 P_______PPP_P_ SH201978 -16.1575 -163.957 70 1 -16.6249 -161.944 43 987 -16.1575 -163.957 TC 70 -16.1331 -163.923 4 -16.1575 -163.957 TC 70 3 191
1978045S13179 1978 14 SP MM CHARLES 1978-02-21 18:00:00 TS -16.3830 196.428 main 968 968 O_______POP_O_ jtwc_sh SH201978 -16.3000 -164.000 70 1 -16.7499 -161.925 47 985 -16.3000 196.000 TC 70 -16.2650 -163.937 4 -16.3000 -164.000 TC 70 3 0
1978045S13179 1978 14 SP MM CHARLES 1978-02-21 21:00:00 TS -16.4973 196.441 main 971 971 P_______PPP_P_ SH201978 -16.4075 -163.973 72 1 -16.8749 -161.944 51 982 -16.4075 -163.973 TC 72 -16.3893 -163.933 4 -16.4075 -163.973 TC 72 2 166
1978045S13179 1978 14 SP MM CHARLES 1978-02-22 00:00:00 TS -16.6000 196.480 55 980 wellington main 984 984 O_______OOO_O_ jtwc_sh SH201978 -16.5000 -163.900 75 1 -17.0000 -162.000 55 980 -16.5000 196.100 TC 75 -16.5000 -163.900 4 70 -16.5000 -163.900 TC 75 2 158
1978045S13179 1978 14 SP MM CHARLES 1978-02-22 03:00:00 TS -16.7115 196.530 main 988 988 P_______PPP_P_ SH201978 -16.6075 -163.808 75 1 -17.1454 -162.101 55 980 -16.6075 -163.808 TC 75 -16.5894 -163.829 4 -16.6075 -163.808 TC 75 2 154
1978045S13179 1978 14 SP MM CHARLES 1978-02-22 06:00:00 TS -16.8105 196.587 main 1001 1001 O_______POP_O_ jtwc_sh SH201978 -16.7000 -163.700 75 1 -17.2876 -162.235 55 980 -16.7000 196.300 TC 75 -16.6650 -163.730 4 -16.7000 -163.700 TC 75 2 148
1978045S13179 1978 14 SP MM CHARLES 1978-02-22 09:00:00 TS -16.8833 196.642 main 1005 1005 P_______PPP_P_ SH201978 -16.7575 -163.600 75 1 -17.4110 -162.376 55 980 -16.7575 -163.600 TC 75 -16.7331 -163.616 4 -16.7575 -163.600 TC 75 2 140
1978045S13179 1978 14 SP MM CHARLES 1978-02-22 12:00:00 TS -16.9400 196.700 55 980 wellington main 1015 1015 O_______OOO_O_ jtwc_sh SH201978 -16.8000 -163.500 75 1 -17.5000 -162.500 55 980 -16.8000 196.500 TC 75 -16.8000 -163.500 4 -16.8000 -163.500 TC 75 2 132
1978045S13179 1978 14 SP MM CHARLES 1978-02-22 15:00:00 TS -16.9893 196.767 main 1029 1029 P_______PPP_P_ SH201978 -16.8425 -163.400 75 1 -17.5359 -162.568 55 980 -16.8425 -163.400 TC 75 -16.8831 -163.396 4 -16.8425 -163.400 TC 75 2 128
1978045S13179 1978 14 SP MM CHARLES 1978-02-22 18:00:00 TS -17.0405 196.838 main 1029 1029 O_______POP_O_ jtwc_sh SH201978 -16.9000 -163.300 75 1 -17.5374 -162.615 55 980 -16.9000 196.700 TC 75 -16.9650 -163.293 4 -16.9000 -163.300 TC 75 2 131
1978045S13179 1978 14 SP MM CHARLES 1978-02-22 21:00:00 TS -17.1119 196.910 main 1043 1043 P_______PPP_P_ SH201978 -17.0000 -163.200 75 1 -17.5203 -162.655 55 980 -17.0000 -163.200 TC 75 -17.0394 -163.193 4 -17.0000 -163.200 TC 75 2 136
1978045S13179 1978 14 SP MM CHARLES 1978-02-23 00:00:00 TS -17.1800 196.980 55 980 wellington main 1056 1056 O_______OOO_O_ jtwc_sh SH201978 -17.1000 -163.100 75 1 -17.5000 -162.700 55 980 -17.1000 196.900 TC 75 -17.1000 -163.100 4 75 -17.1000 -163.100 TC 75 2 131
1978045S13179 1978 14 SP MM CHARLES 1978-02-23 03:00:00 TS -17.2277 197.047 main 1056 1056 P_______PPP_P_ SH201978 -17.1650 -162.993 75 1 -17.5081 -162.772 62 971 -17.1650 -162.993 TC 75 -17.1353 -163.018 4 -17.1650 -162.993 TC 75 1 121
1978045S13179 1978 14 SP MM CHARLES 1978-02-23 06:00:00 TS -17.2545 197.102 main 1070 1070 O_______POP_O_ jtwc_sh SH201978 -17.2000 -162.900 75 1 -17.5150 -162.850 70 962 -17.2000 197.100 TC 75 -17.1575 -162.942 4 -17.2000 -162.900 TC 75 1 108
1978045S13179 1978 14 SP MM CHARLES 1978-02-23 09:00:00 TS -17.2581 197.135 main 1070 1070 P_______PPP_P_ SH201978 -17.2000 -162.842 75 1 -17.5144 -162.928 77 953 -17.2000 -162.842 TC 75 -17.1759 -162.871 4 -17.2000 -162.842 TC 75 1 96
1978045S13179 1978 14 SP MM CHARLES 1978-02-23 12:00:00 TS -17.2600 197.160 85 945 wellington main 1080 1080 O_______OOO_O_ jtwc_sh SH201978 -17.2000 -162.800 75 1 -17.5000 -163.000 85 945 -17.2000 197.200 TC 75 -17.2000 -162.800 4 -17.2000 -162.800 TC 75 1 125
1978045S13179 1978 14 SP MM CHARLES 1978-02-23 15:00:00 TS -17.2902 197.183 main 1080 1080 P_______PPP_P_ SH201978 -17.2425 -162.758 75 1 -17.4765 -163.082 81 950 -17.2425 -162.758 TC 75 -17.2469 -162.729 4 -17.2425 -162.758 TC 75 1 140
1978045S13179 1978 14 SP MM CHARLES 1978-02-23 18:00:00 TS -17.3275 197.218 main 1080 1080 O_______POP_O_ jtwc_sh SH201978 -17.3000 -162.700 75 1 -17.4375 -163.153 77 955 -17.3000 197.300 TC 75 -17.3000 -162.658 4 -17.3000 -162.700 TC 75 1 129
1978045S13179 1978 14 SP MM CHARLES 1978-02-23 21:00:00 TS -17.3611 197.280 main 1094 1094 P_______PPP_P_ SH201978 -17.3575 -162.608 75 1 -17.3797 -163.197 73 960 -17.3575 -162.608 TC 75 -17.3531 -162.582 4 -17.3575 -162.608 TC 75 1 111
1978045S13179 1978 14 SP MM CHARLES 1978-02-24 00:00:00 TS -17.3800 197.360 70 965 wellington main 1104 1104 O_______OOO_O_ jtwc_sh SH201978 -17.4000 -162.500 75 1 -17.3000 -163.200 70 965 -17.4000 197.500 TC 75 -17.4000 -162.500 4 75 -17.4000 -162.500 TC 75 2 89
1978045S13179 1978 14 SP MM CHARLES 1978-02-24 03:00:00 TS -17.3576 197.444 main 1104 1104 P_______PPP_P_ SH201978 -17.4000 -162.400 75 1 -17.1557 -163.179 71 963 -17.4000 -162.400 TC 75 -17.4322 -162.403 4 -17.4000 -162.400 TC 75 2 74
1978045S13179 1978 14 SP MM CHARLES 1978-02-24 06:00:00 TS -17.3309 197.538 main 1110 1110 O_______POP_O_ jtwc_sh SH201978 -17.4000 -162.300 75 1 -16.9972 -163.112 72 962 -17.4000 197.700 TC 75 -17.4575 -162.300 4 -17.4000 -162.300 TC 75 2 85
1978045S13179 1978 14 SP MM CHARLES 1978-02-24 09:00:00 TS -17.3388 197.652 main 1130 1130 P_______PPP_P_ SH201978 -17.4500 -162.185 75 1 -16.8650 -162.989 73 961 -17.4500 -162.185 TC 75 -17.4791 -162.197 4 -17.4500 -162.185 TC 75 2 98
1978045S13179 1978 14 SP MM CHARLES 1978-02-24 12:00:00 TS -17.3600 197.760 75 960 wellington main 1144 1144 O_______OOO_O_ jtwc_sh SH201978 -17.5000 -162.100 75 1 -16.8000 -162.800 75 960 -17.5000 197.900 TC 75 -17.5000 -162.100 4 -17.5000 -162.100 TC 75 2 100
1978045S13179 1978 14 SP MM CHARLES 1978-02-24 15:00:00 TS -17.3683 197.818 main 1144 1144 P_______PPP_P_ SH201978 -17.5000 -162.107 75 1 -16.8372 -162.528 72 962 -17.5000 -162.107 TC 75 -17.5045 -162.058 4 -17.5000 -162.107 TC 75 1 103
1978045S13179 1978 14 SP MM CHARLES 1978-02-24 18:00:00 TS -17.3915 197.898 main 1154 1154 O_______POP_O_ jtwc_sh SH201978 -17.5000 -162.100 75 1 -16.9455 -162.195 70 965 -17.5000 197.900 TC 75 -17.5121 -162.017 4 -17.5000 -162.100 TC 75 2 112
1978045S13179 1978 14 SP MM CHARLES 1978-02-24 21:00:00 TS -17.4544 198.046 main 1168 1168 P_______PPP_P_ SH201978 -17.5424 -161.995 75 1 -17.1060 -161.840 67 967 -17.5424 -161.995 TC 75 -17.5387 -161.942 4 -17.5424 -161.995 TC 75 4 113
1978045S13179 1978 14 SP MM CHARLES 1978-02-25 00:00:00 TS -17.5400 198.260 65 970 wellington main 1198 1198 O_______OOO_O_ jtwc_sh SH201978 -17.6000 -161.800 75 1 -17.3000 -161.500 65 970 -17.6000 198.200 TC 75 -17.6000 -161.800 4 75 -17.6000 -161.800 TC 75 5 108
1978045S13179 1978 14 SP MM CHARLES 1978-02-25 03:00:00 TS -17.5986 198.525 main 1221 1221 P_______PPP_P_ SH201978 -17.6200 -161.530 72 1 -17.4675 -161.240 62 972 -17.6200 -161.530 TC 72 -17.6656 -161.546 4 -17.6200 -161.530 TC 72 6 107
1978045S13179 1978 14 SP MM CHARLES 1978-02-25 06:00:00 TS -17.7080 198.835 main 1255 1255 O_______POP_O_ jtwc_sh SH201978 -17.7000 -161.200 70 1 -17.6670 -160.999 60 975 -17.7000 198.800 TC 70 -17.7729 -161.224 4 -17.7000 -161.200 TC 70 7 117
1978045S13179 1978 14 SP MM CHARLES 1978-02-25 09:00:00 TS -17.9089 199.165 main 1302 1302 P_______PPP_P_ SH201978 -17.8975 -160.850 70 1 -17.9081 -160.759 57 977 -17.8975 -160.850 TC 70 -17.9437 -160.865 4 -17.8975 -160.850 TC 70 8 128
1978045S13179 1978 14 SP MM CHARLES 1978-02-25 12:00:00 TS -18.2000 199.500 55 980 wellington main 1343 1343 O_______OOO_O_ jtwc_sh SH201978 -18.2000 -160.500 70 1 -18.2000 -160.500 55 980 -18.2000 199.500 TC 70 -18.2000 -160.500 4 -18.2000 -160.500 TC 70 9 137
1978045S13179 1978 14 SP MM CHARLES 1978-02-25 15:00:00 TS -18.5569 199.810 main 1389 1389 P_______PPP_P_ SH201978 -18.5624 -160.200 70 1 -18.5458 -160.185 55 980 -18.5624 -160.200 TC 70 -18.5515 -160.167 4 -18.5624 -160.200 TC 70 10 143
1978045S13179 1978 14 SP MM CHARLES 1978-02-25 18:00:00 TS -18.9856 200.123 main 1434 1434 O_______POP_O_ jtwc_sh SH201978 -19.0000 -159.900 70 1 -18.9403 -159.850 55 980 -19.0000 200.100 TC 70 -18.9875 -159.835 4 -19.0000 -159.900 TC 70 11 146
1978045S13179 1978 14 SP MM CHARLES 1978-02-25 21:00:00 TS -19.4599 200.465 main 1495 1495 P_______PPP_P_ SH201978 -19.4850 -159.550 70 1 -19.3646 -159.516 55 980 -19.4850 -159.550 TC 70 -19.4797 -159.511 4 -19.4850 -159.550 TC 70 12 147
1978045S13179 1978 14 SP MM CHARLES 1978-02-26 00:00:00 TS -19.9600 200.800 55 980 wellington main 1546 1546 O_______OOO_O_ jtwc_sh SH201978 -20.0000 -159.200 70 1 -19.8000 -159.200 55 980 -20.0000 200.800 TC 70 -20.0000 -159.200 4 70 -20.0000 -159.200 TC 70 11 148
1978045S13179 1978 14 SP MM CHARLES 1978-02-26 03:00:00 TS -20.4291 201.101 main 1593 1593 P_______PPP_P_ SH201978 -20.4924 -158.885 67 1 -20.1851 -158.923 55 980 -20.4924 -158.885 TC 67 -20.4828 -158.918 4 -20.4924 -158.885 TC 67 11 150
1978045S13179 1978 14 SP MM CHARLES 1978-02-26 06:00:00 TS -20.9144 201.377 main 1646 1646 O_______POP_O_ jtwc_sh SH201978 -21.0000 -158.600 65 1 -20.5823 -158.669 55 980 -21.0000 201.400 TC 65 -20.9896 -158.648 4 -21.0000 -158.600 TC 65 11 154
1978045S13179 1978 14 SP MM CHARLES 1978-02-26 09:00:00 TS -21.4244 201.628 main 1690 1690 P_______PPP_P_ SH201978 -21.5274 -158.350 65 1 -21.0133 -158.430 55 980 -21.5274 -158.350 TC 65 -21.5266 -158.380 4 -21.5274 -158.350 TC 65 12 156
1978045S13179 1978 14 SP MM CHARLES 1978-02-26 12:00:00 TS -21.9800 201.880 55 980 wellington main 1749 1749 O_______OOO_O_ jtwc_sh SH201978 -22.1000 -158.100 65 1 -21.5000 -158.200 55 980 -22.1000 201.900 TC 65 -22.1000 -158.100 4 -22.1000 -158.100 TC 65 13 158
1978045S13179 1978 14 SP MM CHARLES 1978-02-26 15:00:00 TS -22.5939 202.149 main 1801 1801 P_______PPP_P_ SH201978 -22.7349 -157.815 62 0 -22.0468 -157.995 55 980 -22.7349 -157.815 TC 62 -22.7176 -157.817 4 -22.7349 -157.815 TC 62 14 158
1978045S13179 1978 14 SP MM CHARLES 1978-02-26 18:00:00 TS -23.2442 202.438 main 1862 1862 O_______POP_O_ jtwc_sh SH201978 -23.4000 -157.500 60 0 -22.6520 -157.792 55 980 -23.4000 202.500 TC 60 -23.3692 -157.516 4 -23.4000 -157.500 TC 60 14 157
1978045S13179 1978 14 SP MM CHARLES 1978-02-26 21:00:00 TS -23.8983 202.742 main 1930 1930 P_______PPP_P_ SH201978 -24.0498 -157.179 57 0 -23.3061 -157.569 55 980 -24.0498 -157.179 TC 57 -24.0362 -157.182 4 -24.0498 -157.179 TC 57 15 155
1978045S13179 1978 14 SP MM CHARLES 1978-02-27 00:00:00 TS -24.5600 203.100 55 980 wellington main 2007 2007 O_______OOO_O_ jtwc_sh SH201978 -24.7000 -156.800 55 0 -24.0000 -157.300 55 980 -24.7000 203.200 TC 55 -24.7000 -156.800 4 65 -24.7000 -156.800 TC 55 15 151
1978045S13179 1978 14 SP MM CHARLES 1978-02-27 03:00:00 TS -25.2295 203.542 main 2078 2078 P_______PPP_P_ SH201978 -25.3575 -156.322 52 0 -24.7138 -156.978 55 980 -25.3575 -156.322 TC 52 -25.3609 -156.343 4 -25.3575 -156.322 TC 52 16 148
1978045S13179 1978 14 SP MM CHARLES 1978-02-27 06:00:00 TS -25.8945 204.032 main 2164 2164 O_______POP_O_ jtwc_sh SH201978 -26.0000 -155.800 50 0 -25.4620 -156.603 55 980 -26.0000 204.200 TC 50 -26.0105 -155.839 4 -26.0000 -155.800 TC 50 16 146
1978045S13179 1978 14 SP MM CHARLES 1978-02-27 09:00:00 TS -26.5497 204.526 main 2243 2243 P_______PPP_P_ SH201978 -26.6299 -155.292 47 0 -26.2292 -156.177 55 980 -26.6299 -155.292 TC 47 -26.6297 -155.315 4 -26.6299 -155.292 TC 47 15 145
1978045S13179 1978 14 SP MM CHARLES 1978-02-27 12:00:00 TS -27.1600 205.020 55 980 wellington main 2330 2330 O_______OOO_O_ jtwc_sh SH201978 -27.2000 -154.800 45 0 -27.0000 -155.700 55 980 -27.2000 205.200 TC 45 -27.2000 -154.800 4 -27.2000 -154.800 TC 45 14 143
1978045S13179 1978 14 SP MM CHARLES 1978-02-27 15:00:00 TS -27.6872 205.480 main 2403 2403 P_______PPP_P_ SH201978 -27.6723 -154.342 42 0 -27.7501 -155.178 51 982 -27.6723 -154.342 TC 42 -27.6692 -154.399 4 -27.6723 -154.342 TC 42 13 141
1978045S13179 1978 14 SP MM CHARLES 1978-02-27 18:00:00 TS -28.1792 205.938 main 2467 2467 O_______POP_O_ jtwc_sh SH201978 -28.1000 -153.900 40 0 -28.5001 -154.608 47 985 -28.1000 206.100 TC 40 -28.0959 -154.003 4 -28.1000 -153.900 TC 40 13 141
1978045S13179 1978 14 SP MM CHARLES 1978-02-27 21:00:00 TS -28.6754 206.382 main 2540 2540 P_______PPP_P_ SH201978 -28.5341 -153.508 40 0 -29.2500 -154.009 43 987 -28.5341 -153.508 TC 40 -28.5247 -153.557 4 -28.5341 -153.508 TC 40 13 140
1978045S13179 1978 14 SP MM CHARLES 1978-02-28 00:00:00 TS -29.2000 206.920 40 990 wellington main 2612 2612 O_______OOO_O_ jtwc_sh SH201978 -29.0000 -153.000 40 0 -30.0000 -153.400 40 990 -29.0000 207.000 TC 40 -29.0000 -153.000 2 45 -29.0000 -153.000 TC 40 16 134
1978045S13179 1978 14 SP MM CHARLES 1978-02-28 03:00:00 TS -29.7653 207.669 main 2714 2714 P_______PPP_P_ SH201978 -29.5128 -152.217 37 0 -30.7506 -152.797 40 990 -29.5128 -152.217 TC 37 -29.5375 -152.208 2 -29.5128 -152.217 TC 37 18 128
1978045S13179 1978 14 SP MM CHARLES 1978-02-28 06:00:00 TS -30.3271 208.557 main 2817 2817 O_______POP_O_ jtwc_sh SH201978 -30.1000 -151.300 35 0 -31.5015 -152.200 40 990 -30.1000 208.700 TC 35 -30.1275 -151.304 2 -30.1000 -151.300 TC 35 20 127
1978045S13179 1978 14 SP MM CHARLES 1978-02-28 09:00:00 TS -30.9315 209.488 main 2917 2912 P_______PPP_P_ SH201978 -30.7626 -150.377 35 0 -32.2517 -151.602 40 990 -30.7626 -150.377 TC 35 -30.7782 -150.372 2 -30.7626 -150.377 TC 35 20 128
1978045S13179 1978 14 SP MM CHARLES 1978-02-28 12:00:00 TS -31.5882 210.412 40 990 wellington main 2965 2965 O_______OOO_O_ jtwc_sh SH201978 -31.5000 -149.500 35 0 -33.0000 -151.000 40 990 -31.5000 210.500 TC 35 -31.5000 -149.500 2 -31.5000 -149.500 TC 35 20 132
1978045S13179 1978 14 SP MM CHARLES 1978-02-28 15:00:00 TS -32.2715 211.252 main 3016 3012 P________PP_P_ SH201978 -32.2619 -148.746 -1 -32.2619 -148.746 TC -32.3003 -148.753 2 -32.2619 -148.746 TC 32 20 141
1978045S13179 1978 14 SP MM CHARLES 1978-02-28 18:00:00 TS -33.1162 211.897 main 3038 3034 O________OP_O_ jtwc_sh SH201978 -33.1000 -148.100 -1 -33.1000 211.900 TC -33.1648 -148.114 2 -33.1000 -148.100 TC 30 20 150
1978045S13179 1978 14 SP MM CHARLES 1978-02-28 21:00:00 TS -34.0371 212.465 main 3058 3054 P________PP_P_ SH201978 -34.0255 -147.533 -1 -34.0255 -147.533 TC -34.0722 -147.543 2 -34.0255 -147.533 TC 30 21 154
1978045S13179 1978 14 SP MM CHARLES 1978-03-01 00:00:00 TS -35.0000 213.000 main 3070 O________OO_O_ jtwc_sh SH201978 -35.0000 -147.000 -1 -35.0000 213.000 TC -35.0000 -147.000 2 35 -35.0000 -147.000 TC 30 21 156

デジタル台風データ・検索

IBTrACS Databaseについて

本データベースは、米国NOAAが公開する1842年以降の世界の熱帯低気圧のベストトラックデータアーカイブInternational Best Track Archive for Climate Stewardship (IBTrACS)を、ウェブで閲覧しやすい形式に変換したものです。

最終更新日:2021-12-06